Flight Briefing for CMB818

Departure Arrival
Ramstein Air Force Base (ETAR)
Click to view FAA NOTAMS
RAF Mildenhall (EGUN)
Click to view FAA NOTAMS
Departure Time Arrival Time
N/A N/A
Aircraft Distance
B767-300BDSF 322nm
Departure METAR Arrival METAR
ETAR 250256Z AUTO 00000KT 9999 SCT070 BKN095 BKN110 11/10 A2997 RMK AO2 SLP147 T01050097 53001 $ EGUN 250256Z AUTO 27005KT 9999 FEW100 BKN180 11/11 A3004 RMK AO2 SLP176 T01060106 50000 $
Suggested Route





View recent IFR Routes data
Notes
USTRANSCOM CONTRACT FLIGHT

Charts and Procedures

Charts for ETAR
No chart available
Charts for EGUN
No chart available

Windy.com Weather Map